sensor_id;sensor_type;location;lat;lon;timestamp;temperature;humidity
21037;DHT22;10677;50.942;4.028;2022-09-09T00:07:00;15.50;99.90
21037;DHT22;10677;50.942;4.028;2022-09-09T00:09:31;15.40;99.90
21037;DHT22;10677;50.942;4.028;2022-09-09T00:12:15;15.40;99.90
21037;DHT22;10677;50.942;4.028;2022-09-09T00:14:55;15.30;99.90
21037;DHT22;10677;50.942;4.028;2022-09-09T00:20:46;15.30;99.90
21037;DHT22;10677;50.942;4.028;2022-09-09T00:23:39;15.40;99.90
21037;DHT22;10677;50.942;4.028;2022-09-09T00:26:23;15.40;99.90
21037;DHT22;10677;50.942;4.028;2022-09-09T00:31:31;15.40;99.90
21037;DHT22;10677;50.942;4.028;2022-09-09T00:34:15;15.40;99.90
21037;DHT22;10677;50.942;4.028;2022-09-09T00:36:42;15.40;99.90
21037;DHT22;10677;50.942;4.028;2022-09-09T00:39:38;15.50;99.90
21037;DHT22;10677;50.942;4.028;2022-09-09T00:42:15;15.50;99.90
21037;DHT22;10677;50.942;4.028;2022-09-09T00:44:52;15.40;99.90
21037;DHT22;10677;50.942;4.028;2022-09-09T00:47:51;15.40;99.90
21037;DHT22;10677;50.942;4.028;2022-09-09T00:55:56;15.40;99.90
21037;DHT22;10677;50.942;4.028;2022-09-09T00:58:25;15.40;99.90
21037;DHT22;10677;50.942;4.028;2022-09-09T01:01:06;15.40;99.90
21037;DHT22;10677;50.942;4.028;2022-09-09T01:03:51;15.50;99.90
21037;DHT22;10677;50.942;4.028;2022-09-09T01:22:35;15.40;99.90
21037;DHT22;10677;50.942;4.028;2022-09-09T01:28:04;15.40;99.90
21037;DHT22;10677;50.942;4.028;2022-09-09T01:30:37;15.30;99.90
21037;DHT22;10677;50.942;4.028;2022-09-09T01:33:04;15.30;99.90
21037;DHT22;10677;50.942;4.028;2022-09-09T01:37:59;15.40;99.90
21037;DHT22;10677;50.942;4.028;2022-09-09T01:40:25;15.40;99.90
21037;DHT22;10677;50.942;4.028;2022-09-09T01:42:52;15.50;99.90
21037;DHT22;10677;50.942;4.028;2022-09-09T01:45:18;15.40;99.90
21037;DHT22;10677;50.942;4.028;2022-09-09T01:47:45;15.40;99.90
21037;DHT22;10677;50.942;4.028;2022-09-09T01:50:14;15.40;99.90
21037;DHT22;10677;50.942;4.028;2022-09-09T01:52:40;15.50;99.90
21037;DHT22;10677;50.942;4.028;2022-09-09T01:55:07;15.40;99.90
21037;DHT22;10677;50.942;4.028;2022-09-09T02:00:11;15.50;99.90
21037;DHT22;10677;50.942;4.028;2022-09-09T02:05:39;15.40;99.90
21037;DHT22;10677;50.942;4.028;2022-09-09T02:08:31;15.40;99.90
21037;DHT22;10677;50.942;4.028;2022-09-09T02:11:06;15.40;99.90
21037;DHT22;10677;50.942;4.028;2022-09-09T02:13:35;15.40;99.90
21037;DHT22;10677;50.942;4.028;2022-09-09T02:16:08;15.30;99.90
21037;DHT22;10677;50.942;4.028;2022-09-09T02:18:42;15.30;99.90
21037;DHT22;10677;50.942;4.028;2022-09-09T02:21:11;15.40;99.90
21037;DHT22;10677;50.942;4.028;2022-09-09T02:23:41;15.40;99.90
21037;DHT22;10677;50.942;4.028;2022-09-09T02:26:09;15.40;99.90
21037;DHT22;10677;50.942;4.028;2022-09-09T02:28:37;15.40;99.90
21037;DHT22;10677;50.942;4.028;2022-09-09T02:31:04;15.40;99.90
21037;DHT22;10677;50.942;4.028;2022-09-09T02:33:35;15.50;99.90
21037;DHT22;10677;50.942;4.028;2022-09-09T02:36:03;15.50;99.90
21037;DHT22;10677;50.942;4.028;2022-09-09T02:38:35;15.50;99.90
21037;DHT22;10677;50.942;4.028;2022-09-09T02:41:01;15.50;99.90
21037;DHT22;10677;50.942;4.028;2022-09-09T02:43:36;15.50;99.90
21037;DHT22;10677;50.942;4.028;2022-09-09T02:46:24;15.50;99.90
21037;DHT22;10677;50.942;4.028;2022-09-09T02:51:35;15.50;99.90
21037;DHT22;10677;50.942;4.028;2022-09-09T02:56:37;15.50;99.90
21037;DHT22;10677;50.942;4.028;2022-09-09T02:59:05;15.50;99.90
21037;DHT22;10677;50.942;4.028;2022-09-09T03:01:31;15.50;99.90
21037;DHT22;10677;50.942;4.028;2022-09-09T03:03:57;15.50;99.90
21037;DHT22;10677;50.942;4.028;2022-09-09T03:06:22;15.50;99.90
21037;DHT22;10677;50.942;4.028;2022-09-09T03:08:48;15.50;99.90
21037;DHT22;10677;50.942;4.028;2022-09-09T03:11:16;15.40;99.90
21037;DHT22;10677;50.942;4.028;2022-09-09T03:13:42;15.40;99.90
21037;DHT22;10677;50.942;4.028;2022-09-09T03:16:07;15.50;99.90
21037;DHT22;10677;50.942;4.028;2022-09-09T03:18:33;15.50;99.90
21037;DHT22;10677;50.942;4.028;2022-09-09T03:21:00;15.40;99.90
21037;DHT22;10677;50.942;4.028;2022-09-09T03:23:25;15.50;99.90
21037;DHT22;10677;50.942;4.028;2022-09-09T03:25:51;15.50;99.90
21037;DHT22;10677;50.942;4.028;2022-09-09T03:28:18;15.50;99.90
21037;DHT22;10677;50.942;4.028;2022-09-09T03:30:43;15.50;99.90
21037;DHT22;10677;50.942;4.028;2022-09-09T03:33:09;15.50;99.90
21037;DHT22;10677;50.942;4.028;2022-09-09T03:35:35;15.40;99.90
21037;DHT22;10677;50.942;4.028;2022-09-09T03:38:02;15.50;99.90
21037;DHT22;10677;50.942;4.028;2022-09-09T03:40:28;15.60;99.90
21037;DHT22;10677;50.942;4.028;2022-09-09T03:42:54;15.60;99.90
21037;DHT22;10677;50.942;4.028;2022-09-09T03:45:19;15.60;99.90
21037;DHT22;10677;50.942;4.028;2022-09-09T03:47:45;15.60;99.90
21037;DHT22;10677;50.942;4.028;2022-09-09T03:50:11;15.70;99.90
21037;DHT22;10677;50.942;4.028;2022-09-09T03:52:41;15.80;99.90
21037;DHT22;10677;50.942;4.028;2022-09-09T03:55:08;15.80;99.90
21037;DHT22;10677;50.942;4.028;2022-09-09T03:57:34;15.90;99.90
21037;DHT22;10677;50.942;4.028;2022-09-09T04:00:06;15.80;99.90
21037;DHT22;10677;50.942;4.028;2022-09-09T04:02:32;15.80;99.90
21037;DHT22;10677;50.942;4.028;2022-09-09T04:04:58;15.80;99.90
21037;DHT22;10677;50.942;4.028;2022-09-09T04:07:25;15.80;99.90
21037;DHT22;10677;50.942;4.028;2022-09-09T04:09:52;15.80;99.90
21037;DHT22;10677;50.942;4.028;2022-09-09T04:12:18;15.80;99.90
21037;DHT22;10677;50.942;4.028;2022-09-09T04:14:44;15.80;99.90
21037;DHT22;10677;50.942;4.028;2022-09-09T04:17:10;15.90;99.90
21037;DHT22;10677;50.942;4.028;2022-09-09T04:19:36;15.90;99.90
21037;DHT22;10677;50.942;4.028;2022-09-09T04:22:02;15.90;99.90
21037;DHT22;10677;50.942;4.028;2022-09-09T04:24:27;15.90;99.90
21037;DHT22;10677;50.942;4.028;2022-09-09T04:26:55;15.90;99.90
21037;DHT22;10677;50.942;4.028;2022-09-09T04:29:20;15.90;99.90
21037;DHT22;10677;50.942;4.028;2022-09-09T04:31:46;16.00;99.90
21037;DHT22;10677;50.942;4.028;2022-09-09T04:34:12;15.90;99.90
21037;DHT22;10677;50.942;4.028;2022-09-09T04:36:37;15.90;99.90
21037;DHT22;10677;50.942;4.028;2022-09-09T04:39:04;15.90;99.90
21037;DHT22;10677;50.942;4.028;2022-09-09T04:41:30;15.90;99.90
21037;DHT22;10677;50.942;4.028;2022-09-09T04:43:56;16.00;99.90
21037;DHT22;10677;50.942;4.028;2022-09-09T04:46:23;16.00;99.90
21037;DHT22;10677;50.942;4.028;2022-09-09T04:48:49;16.10;99.90
21037;DHT22;10677;50.942;4.028;2022-09-09T04:51:15;16.10;99.90
21037;DHT22;10677;50.942;4.028;2022-09-09T04:53:41;16.00;99.90
21037;DHT22;10677;50.942;4.028;2022-09-09T04:56:11;16.00;99.90
21037;DHT22;10677;50.942;4.028;2022-09-09T04:58:38;16.00;99.90
21037;DHT22;10677;50.942;4.028;2022-09-09T05:01:08;16.00;99.90
21037;DHT22;10677;50.942;4.028;2022-09-09T05:03:34;16.00;99.90
21037;DHT22;10677;50.942;4.028;2022-09-09T05:06:20;16.10;99.90
21037;DHT22;10677;50.942;4.028;2022-09-09T05:08:46;16.20;99.90
21037;DHT22;10677;50.942;4.028;2022-09-09T05:11:17;16.20;99.90
21037;DHT22;10677;50.942;4.028;2022-09-09T05:13:43;16.10;99.90
21037;DHT22;10677;50.942;4.028;2022-09-09T05:16:09;16.20;99.90
21037;DHT22;10677;50.942;4.028;2022-09-09T05:18:40;16.20;99.90
21037;DHT22;10677;50.942;4.028;2022-09-09T05:21:06;16.10;99.90
21037;DHT22;10677;50.942;4.028;2022-09-09T05:23:33;16.10;99.90
21037;DHT22;10677;50.942;4.028;2022-09-09T05:25:59;16.10;99.90
21037;DHT22;10677;50.942;4.028;2022-09-09T05:28:25;16.20;99.90
21037;DHT22;10677;50.942;4.028;2022-09-09T05:30:58;16.20;99.90
21037;DHT22;10677;50.942;4.028;2022-09-09T05:33:25;16.20;99.90
21037;DHT22;10677;50.942;4.028;2022-09-09T05:38:28;16.20;99.90
21037;DHT22;10677;50.942;4.028;2022-09-09T05:40:55;16.10;99.90
21037;DHT22;10677;50.942;4.028;2022-09-09T05:43:22;16.10;99.90
21037;DHT22;10677;50.942;4.028;2022-09-09T05:45:48;16.10;99.90
21037;DHT22;10677;50.942;4.028;2022-09-09T05:48:15;16.10;99.90
21037;DHT22;10677;50.942;4.028;2022-09-09T05:50:42;16.10;99.90
21037;DHT22;10677;50.942;4.028;2022-09-09T05:53:08;16.20;99.90
21037;DHT22;10677;50.942;4.028;2022-09-09T05:55:36;16.30;99.90
21037;DHT22;10677;50.942;4.028;2022-09-09T05:58:01;16.30;99.90
21037;DHT22;10677;50.942;4.028;2022-09-09T06:00:28;16.40;99.90
21037;DHT22;10677;50.942;4.028;2022-09-09T06:02:54;16.30;99.90
21037;DHT22;10677;50.942;4.028;2022-09-09T06:05:20;16.30;99.90
21037;DHT22;10677;50.942;4.028;2022-09-09T06:07:48;16.40;99.90
21037;DHT22;10677;50.942;4.028;2022-09-09T06:10:18;16.50;99.90
21037;DHT22;10677;50.942;4.028;2022-09-09T06:12:44;16.60;99.90
21037;DHT22;10677;50.942;4.028;2022-09-09T06:15:10;16.60;99.90
21037;DHT22;10677;50.942;4.028;2022-09-09T06:17:36;16.50;99.90
21037;DHT22;10677;50.942;4.028;2022-09-09T06:20:04;16.50;99.90
21037;DHT22;10677;50.942;4.028;2022-09-09T06:22:31;16.50;99.90
21037;DHT22;10677;50.942;4.028;2022-09-09T06:24:56;16.50;99.90
21037;DHT22;10677;50.942;4.028;2022-09-09T06:27:22;16.60;99.90
21037;DHT22;10677;50.942;4.028;2022-09-09T06:29:48;16.60;99.90
21037;DHT22;10677;50.942;4.028;2022-09-09T06:32:13;16.70;99.90
21037;DHT22;10677;50.942;4.028;2022-09-09T06:34:39;16.70;99.90
21037;DHT22;10677;50.942;4.028;2022-09-09T06:37:05;16.70;99.90
21037;DHT22;10677;50.942;4.028;2022-09-09T06:39:33;16.60;99.90
21037;DHT22;10677;50.942;4.028;2022-09-09T06:41:59;16.70;99.90
21037;DHT22;10677;50.942;4.028;2022-09-09T06:44:28;16.80;99.90
21037;DHT22;10677;50.942;4.028;2022-09-09T06:46:55;16.90;99.90
21037;DHT22;10677;50.942;4.028;2022-09-09T06:49:21;17.00;99.90
21037;DHT22;10677;50.942;4.028;2022-09-09T06:51:47;17.10;99.90
21037;DHT22;10677;50.942;4.028;2022-09-09T06:54:13;17.20;99.90
21037;DHT22;10677;50.942;4.028;2022-09-09T06:56:41;17.30;99.90
21037;DHT22;10677;50.942;4.028;2022-09-09T06:59:09;17.40;99.90
21037;DHT22;10677;50.942;4.028;2022-09-09T07:01:37;17.40;99.90
21037;DHT22;10677;50.942;4.028;2022-09-09T07:04:04;17.40;99.90
21037;DHT22;10677;50.942;4.028;2022-09-09T07:06:35;17.20;99.90
21037;DHT22;10677;50.942;4.028;2022-09-09T07:09:11;17.20;99.90
21037;DHT22;10677;50.942;4.028;2022-09-09T07:11:39;17.20;99.90
21037;DHT22;10677;50.942;4.028;2022-09-09T07:14:06;17.20;99.90
21037;DHT22;10677;50.942;4.028;2022-09-09T07:16:33;17.10;99.90
21037;DHT22;10677;50.942;4.028;2022-09-09T07:18:58;17.20;99.90
21037;DHT22;10677;50.942;4.028;2022-09-09T07:21:26;17.10;99.90
21037;DHT22;10677;50.942;4.028;2022-09-09T07:23:53;17.10;99.90
21037;DHT22;10677;50.942;4.028;2022-09-09T07:26:21;17.00;99.90
21037;DHT22;10677;50.942;4.028;2022-09-09T07:28:47;17.00;99.90
21037;DHT22;10677;50.942;4.028;2022-09-09T07:31:18;17.00;99.90
21037;DHT22;10677;50.942;4.028;2022-09-09T07:33:46;17.10;99.90
21037;DHT22;10677;50.942;4.028;2022-09-09T07:36:24;17.00;99.90
21037;DHT22;10677;50.942;4.028;2022-09-09T07:38:53;17.00;99.90
21037;DHT22;10677;50.942;4.028;2022-09-09T07:41:22;17.00;99.90
21037;DHT22;10677;50.942;4.028;2022-09-09T07:43:49;17.00;99.90
21037;DHT22;10677;50.942;4.028;2022-09-09T07:46:17;17.20;99.90
21037;DHT22;10677;50.942;4.028;2022-09-09T07:48:54;17.30;99.90
21037;DHT22;10677;50.942;4.028;2022-09-09T07:51:29;17.40;99.90
21037;DHT22;10677;50.942;4.028;2022-09-09T07:53:58;17.40;99.90
21037;DHT22;10677;50.942;4.028;2022-09-09T07:56:25;17.40;99.90
21037;DHT22;10677;50.942;4.028;2022-09-09T07:58:53;17.50;99.90
21037;DHT22;10677;50.942;4.028;2022-09-09T08:01:27;17.50;99.90
21037;DHT22;10677;50.942;4.028;2022-09-09T08:03:55;17.70;99.90
21037;DHT22;10677;50.942;4.028;2022-09-09T08:06:21;17.80;99.90
21037;DHT22;10677;50.942;4.028;2022-09-09T08:08:51;17.80;99.90
21037;DHT22;10677;50.942;4.028;2022-09-09T08:11:17;17.90;99.90
21037;DHT22;10677;50.942;4.028;2022-09-09T08:13:43;17.90;99.90
21037;DHT22;10677;50.942;4.028;2022-09-09T08:16:12;17.90;99.90
21037;DHT22;10677;50.942;4.028;2022-09-09T08:18:39;17.90;99.90
21037;DHT22;10677;50.942;4.028;2022-09-09T08:21:12;17.80;99.90
21037;DHT22;10677;50.942;4.028;2022-09-09T08:23:42;17.70;99.90
21037;DHT22;10677;50.942;4.028;2022-09-09T08:26:41;17.80;99.90
21037;DHT22;10677;50.942;4.028;2022-09-09T08:29:09;17.70;99.90
21037;DHT22;10677;50.942;4.028;2022-09-09T08:31:37;17.70;99.90
21037;DHT22;10677;50.942;4.028;2022-09-09T08:34:05;17.60;99.90
21037;DHT22;10677;50.942;4.028;2022-09-09T08:36:35;17.40;99.90
21037;DHT22;10677;50.942;4.028;2022-09-09T08:39:04;17.40;99.90
21037;DHT22;10677;50.942;4.028;2022-09-09T08:52:25;17.30;99.90
21037;DHT22;10677;50.942;4.028;2022-09-09T08:54:53;17.30;99.90
21037;DHT22;10677;50.942;4.028;2022-09-09T08:57:25;17.40;99.90
21037;DHT22;10677;50.942;4.028;2022-09-09T08:59:54;17.40;99.90
21037;DHT22;10677;50.942;4.028;2022-09-09T09:05:22;17.30;99.90
21037;DHT22;10677;50.942;4.028;2022-09-09T09:08:17;17.30;99.90
21037;DHT22;10677;50.942;4.028;2022-09-09T09:10:51;17.40;99.90
21037;DHT22;10677;50.942;4.028;2022-09-09T09:13:20;17.50;99.90
21037;DHT22;10677;50.942;4.028;2022-09-09T09:16:00;17.60;99.90
21037;DHT22;10677;50.942;4.028;2022-09-09T09:18:27;17.70;99.90
21037;DHT22;10677;50.942;4.028;2022-09-09T09:24:11;17.80;99.90
21037;DHT22;10677;50.942;4.028;2022-09-09T09:26:35;17.70;99.90
21037;DHT22;10677;50.942;4.028;2022-09-09T09:29:15;17.70;99.90
21037;DHT22;10677;50.942;4.028;2022-09-09T09:31:56;17.80;99.90
21037;DHT22;10677;50.942;4.028;2022-09-09T09:34:23;17.90;99.90
21037;DHT22;10677;50.942;4.028;2022-09-09T09:36:57;17.90;99.90
21037;DHT22;10677;50.942;4.028;2022-09-09T09:39:32;17.80;99.90
21037;DHT22;10677;50.942;4.028;2022-09-09T09:42:16;17.80;99.90
21037;DHT22;10677;50.942;4.028;2022-09-09T09:44:43;17.80;99.90
21037;DHT22;10677;50.942;4.028;2022-09-09T09:47:22;17.90;99.90
21037;DHT22;10677;50.942;4.028;2022-09-09T09:52:25;18.10;99.90
21037;DHT22;10677;50.942;4.028;2022-09-09T09:54:55;18.20;99.90
21037;DHT22;10677;50.942;4.028;2022-09-09T09:57:28;18.20;99.90
21037;DHT22;10677;50.942;4.028;2022-09-09T10:00:20;18.40;99.90
21037;DHT22;10677;50.942;4.028;2022-09-09T10:02:47;18.70;99.90
21037;DHT22;10677;50.942;4.028;2022-09-09T10:05:15;18.90;99.90
21037;DHT22;10677;50.942;4.028;2022-09-09T10:07:41;18.90;99.90
21037;DHT22;10677;50.942;4.028;2022-09-09T10:10:19;19.00;99.90
21037;DHT22;10677;50.942;4.028;2022-09-09T10:13:26;19.10;99.90
21037;DHT22;10677;50.942;4.028;2022-09-09T10:15:59;19.30;99.90
21037;DHT22;10677;50.942;4.028;2022-09-09T10:19:06;19.10;99.90
21037;DHT22;10677;50.942;4.028;2022-09-09T10:32:54;18.50;99.90
21037;DHT22;10677;50.942;4.028;2022-09-09T10:35:42;18.50;99.90
21037;DHT22;10677;50.942;4.028;2022-09-09T10:38:26;18.40;99.90
21037;DHT22;10677;50.942;4.028;2022-09-09T10:51:50;18.80;99.90
21037;DHT22;10677;50.942;4.028;2022-09-09T10:57:29;19.10;99.90
21037;DHT22;10677;50.942;4.028;2022-09-09T11:00:40;19.30;99.90
21037;DHT22;10677;50.942;4.028;2022-09-09T11:03:00;19.30;99.90
21037;DHT22;10677;50.942;4.028;2022-09-09T11:05:30;19.20;99.90
21037;DHT22;10677;50.942;4.028;2022-09-09T11:08:26;19.30;99.90
21037;DHT22;10677;50.942;4.028;2022-09-09T11:10:53;19.50;99.90
21037;DHT22;10677;50.942;4.028;2022-09-09T11:13:25;19.50;99.90
21037;DHT22;10677;50.942;4.028;2022-09-09T11:18:45;19.70;99.90
21037;DHT22;10677;50.942;4.028;2022-09-09T11:21:40;19.90;99.90
21037;DHT22;10677;50.942;4.028;2022-09-09T11:26:47;20.10;99.90
21037;DHT22;10677;50.942;4.028;2022-09-09T11:32:34;19.90;99.90
21037;DHT22;10677;50.942;4.028;2022-09-09T11:38:02;19.70;99.90
21037;DHT22;10677;50.942;4.028;2022-09-09T11:40:32;19.70;99.90
21037;DHT22;10677;50.942;4.028;2022-09-09T11:43:15;19.70;99.90
21037;DHT22;10677;50.942;4.028;2022-09-09T11:45:54;19.70;99.90
21037;DHT22;10677;50.942;4.028;2022-09-09T11:48:40;19.60;99.90
21037;DHT22;10677;50.942;4.028;2022-09-09T11:51:13;19.80;99.90
21037;DHT22;10677;50.942;4.028;2022-09-09T11:53:53;19.90;99.90
21037;DHT22;10677;50.942;4.028;2022-09-09T11:56:45;19.90;99.90
21037;DHT22;10677;50.942;4.028;2022-09-09T11:59:29;20.00;99.90
21037;DHT22;10677;50.942;4.028;2022-09-09T12:02:00;20.10;99.90
21037;DHT22;10677;50.942;4.028;2022-09-09T12:05:08;20.10;99.90
21037;DHT22;10677;50.942;4.028;2022-09-09T12:07:45;20.60;99.90
21037;DHT22;10677;50.942;4.028;2022-09-09T12:12:49;21.10;99.90
21037;DHT22;10677;50.942;4.028;2022-09-09T12:15:19;21.10;99.90
21037;DHT22;10677;50.942;4.028;2022-09-09T12:17:57;21.40;99.90
21037;DHT22;10677;50.942;4.028;2022-09-09T12:20:36;21.10;99.90
21037;DHT22;10677;50.942;4.028;2022-09-09T12:28:15;21.40;99.90
21037;DHT22;10677;50.942;4.028;2022-09-09T12:31:05;21.40;99.90
21037;DHT22;10677;50.942;4.028;2022-09-09T12:33:35;21.30;99.90
21037;DHT22;10677;50.942;4.028;2022-09-09T12:36:03;21.20;99.90
21037;DHT22;10677;50.942;4.028;2022-09-09T12:38:48;21.30;99.90
21037;DHT22;10677;50.942;4.028;2022-09-09T12:43:45;21.10;99.90
21037;DHT22;10677;50.942;4.028;2022-09-09T12:48:48;20.90;99.90
21037;DHT22;10677;50.942;4.028;2022-09-09T12:51:33;20.90;99.90
21037;DHT22;10677;50.942;4.028;2022-09-09T12:53:59;21.00;99.90
21037;DHT22;10677;50.942;4.028;2022-09-09T12:56:30;21.20;99.90
21037;DHT22;10677;50.942;4.028;2022-09-09T12:58:57;21.50;99.90
21037;DHT22;10677;50.942;4.028;2022-09-09T13:01:27;21.50;99.90
21037;DHT22;10677;50.942;4.028;2022-09-09T13:03:54;21.60;99.90
21037;DHT22;10677;50.942;4.028;2022-09-09T13:06:25;21.70;99.90
21037;DHT22;10677;50.942;4.028;2022-09-09T13:08:52;21.70;99.90
21037;DHT22;10677;50.942;4.028;2022-09-09T13:14:34;21.50;99.90
21037;DHT22;10677;50.942;4.028;2022-09-09T13:17:04;21.60;99.90
21037;DHT22;10677;50.942;4.028;2022-09-09T13:19:38;21.70;99.90
21037;DHT22;10677;50.942;4.028;2022-09-09T13:22:33;21.70;99.90
21037;DHT22;10677;50.942;4.028;2022-09-09T13:25:05;21.80;99.90
21037;DHT22;10677;50.942;4.028;2022-09-09T13:27:34;22.00;99.90
21037;DHT22;10677;50.942;4.028;2022-09-09T13:30:26;22.00;99.90
21037;DHT22;10677;50.942;4.028;2022-09-09T13:33:06;22.10;99.90
21037;DHT22;10677;50.942;4.028;2022-09-09T13:38:21;22.00;99.90
21037;DHT22;10677;50.942;4.028;2022-09-09T13:41:04;21.90;99.90
21037;DHT22;10677;50.942;4.028;2022-09-09T13:43:36;21.80;99.90
21037;DHT22;10677;50.942;4.028;2022-09-09T13:49:00;22.10;99.90
21037;DHT22;10677;50.942;4.028;2022-09-09T13:51:34;22.30;99.90
21037;DHT22;10677;50.942;4.028;2022-09-09T13:54:01;22.20;99.90
21037;DHT22;10677;50.942;4.028;2022-09-09T13:56:27;22.00;99.90
21037;DHT22;10677;50.942;4.028;2022-09-09T13:58:52;22.10;99.90
21037;DHT22;10677;50.942;4.028;2022-09-09T14:01:18;22.20;99.90
21037;DHT22;10677;50.942;4.028;2022-09-09T14:03:44;22.10;99.90
21037;DHT22;10677;50.942;4.028;2022-09-09T14:06:10;22.20;99.90
21037;DHT22;10677;50.942;4.028;2022-09-09T14:08:36;22.00;99.90
21037;DHT22;10677;50.942;4.028;2022-09-09T14:11:03;21.90;99.90
21037;DHT22;10677;50.942;4.028;2022-09-09T14:16:33;22.10;99.90
21037;DHT22;10677;50.942;4.028;2022-09-09T14:18:59;22.80;99.90
21037;DHT22;10677;50.942;4.028;2022-09-09T14:21:26;23.70;99.90
21037;DHT22;10677;50.942;4.028;2022-09-09T14:23:52;24.50;99.90
21037;DHT22;10677;50.942;4.028;2022-09-09T14:26:19;25.40;99.90
21037;DHT22;10677;50.942;4.028;2022-09-09T14:28:46;26.50;99.90
21037;DHT22;10677;50.942;4.028;2022-09-09T14:31:13;26.20;99.90
21037;DHT22;10677;50.942;4.028;2022-09-09T14:33:39;25.70;99.90
21037;DHT22;10677;50.942;4.028;2022-09-09T14:36:06;25.10;99.90
21037;DHT22;10677;50.942;4.028;2022-09-09T14:38:34;25.30;99.90
21037;DHT22;10677;50.942;4.028;2022-09-09T14:41:00;25.20;99.90
21037;DHT22;10677;50.942;4.028;2022-09-09T14:43:30;24.30;99.90
21037;DHT22;10677;50.942;4.028;2022-09-09T14:46:07;23.70;99.90
21037;DHT22;10677;50.942;4.028;2022-09-09T14:48:34;22.90;99.90
21037;DHT22;10677;50.942;4.028;2022-09-09T14:51:19;22.70;99.90
21037;DHT22;10677;50.942;4.028;2022-09-09T14:53:45;22.50;99.90
21037;DHT22;10677;50.942;4.028;2022-09-09T14:56:15;22.40;99.90
21037;DHT22;10677;50.942;4.028;2022-09-09T14:58:41;22.00;99.90
21037;DHT22;10677;50.942;4.028;2022-09-09T15:01:11;21.80;99.90
21037;DHT22;10677;50.942;4.028;2022-09-09T15:03:38;21.30;99.90
21037;DHT22;10677;50.942;4.028;2022-09-09T15:06:13;21.20;99.90
21037;DHT22;10677;50.942;4.028;2022-09-09T15:08:42;21.10;99.90
21037;DHT22;10677;50.942;4.028;2022-09-09T15:11:08;20.90;99.90
21037;DHT22;10677;50.942;4.028;2022-09-09T15:13:37;20.80;99.90
21037;DHT22;10677;50.942;4.028;2022-09-09T15:16:04;20.80;99.90
21037;DHT22;10677;50.942;4.028;2022-09-09T15:21:53;21.00;99.90
21037;DHT22;10677;50.942;4.028;2022-09-09T15:24:19;20.50;99.90
21037;DHT22;10677;50.942;4.028;2022-09-09T15:26:46;20.20;99.90
21037;DHT22;10677;50.942;4.028;2022-09-09T15:29:12;20.10;99.90
21037;DHT22;10677;50.942;4.028;2022-09-09T15:31:37;20.00;99.90
21037;DHT22;10677;50.942;4.028;2022-09-09T15:34:05;19.70;99.90
21037;DHT22;10677;50.942;4.028;2022-09-09T15:36:36;19.50;99.90
21037;DHT22;10677;50.942;4.028;2022-09-09T15:39:04;19.20;99.90
21037;DHT22;10677;50.942;4.028;2022-09-09T15:41:30;19.00;99.90
21037;DHT22;10677;50.942;4.028;2022-09-09T15:43:59;18.80;99.90
21037;DHT22;10677;50.942;4.028;2022-09-09T15:46:36;18.70;99.90
21037;DHT22;10677;50.942;4.028;2022-09-09T15:49:09;18.70;99.90
21037;DHT22;10677;50.942;4.028;2022-09-09T15:51:43;18.90;99.90
21037;DHT22;10677;50.942;4.028;2022-09-09T15:54:15;19.00;99.90
21037;DHT22;10677;50.942;4.028;2022-09-09T15:56:46;19.10;99.90
21037;DHT22;10677;50.942;4.028;2022-09-09T15:59:14;19.10;99.90
21037;DHT22;10677;50.942;4.028;2022-09-09T16:01:41;19.10;99.90
21037;DHT22;10677;50.942;4.028;2022-09-09T16:04:08;19.10;99.90
21037;DHT22;10677;50.942;4.028;2022-09-09T16:06:34;19.10;99.90
21037;DHT22;10677;50.942;4.028;2022-09-09T16:09:02;19.10;99.90
21037;DHT22;10677;50.942;4.028;2022-09-09T16:11:36;19.10;99.90
21037;DHT22;10677;50.942;4.028;2022-09-09T16:14:02;19.00;99.90
21037;DHT22;10677;50.942;4.028;2022-09-09T16:16:29;19.00;99.90
21037;DHT22;10677;50.942;4.028;2022-09-09T16:18:57;18.80;99.90
21037;DHT22;10677;50.942;4.028;2022-09-09T16:21:29;18.50;99.90
21037;DHT22;10677;50.942;4.028;2022-09-09T16:23:58;18.40;99.90
21037;DHT22;10677;50.942;4.028;2022-09-09T16:26:31;18.30;99.90
21037;DHT22;10677;50.942;4.028;2022-09-09T16:28:58;18.20;99.90
21037;DHT22;10677;50.942;4.028;2022-09-09T16:31:26;18.20;99.90
21037;DHT22;10677;50.942;4.028;2022-09-09T16:33:52;19.40;99.90
21037;DHT22;10677;50.942;4.028;2022-09-09T16:36:32;20.90;99.90
21037;DHT22;10677;50.942;4.028;2022-09-09T16:39:01;20.60;99.90
21037;DHT22;10677;50.942;4.028;2022-09-09T16:41:28;20.50;99.90
21037;DHT22;10677;50.942;4.028;2022-09-09T16:43:56;20.40;99.90
21037;DHT22;10677;50.942;4.028;2022-09-09T16:46:22;20.50;99.90
21037;DHT22;10677;50.942;4.028;2022-09-09T16:48:49;20.60;99.90
21037;DHT22;10677;50.942;4.028;2022-09-09T16:51:24;20.70;99.90
21037;DHT22;10677;50.942;4.028;2022-09-09T16:53:52;20.70;99.90
21037;DHT22;10677;50.942;4.028;2022-09-09T16:56:20;20.80;99.90
21037;DHT22;10677;50.942;4.028;2022-09-09T16:58:51;20.60;99.90
21037;DHT22;10677;50.942;4.028;2022-09-09T17:01:17;20.40;99.90
21037;DHT22;10677;50.942;4.028;2022-09-09T17:03:43;20.40;99.90
21037;DHT22;10677;50.942;4.028;2022-09-09T17:06:13;20.30;99.90
21037;DHT22;10677;50.942;4.028;2022-09-09T17:08:40;20.20;99.90
21037;DHT22;10677;50.942;4.028;2022-09-09T17:11:16;20.30;99.90
21037;DHT22;10677;50.942;4.028;2022-09-09T17:13:42;20.40;99.90
21037;DHT22;10677;50.942;4.028;2022-09-09T17:16:09;20.60;99.90
21037;DHT22;10677;50.942;4.028;2022-09-09T17:18:35;21.00;99.90
21037;DHT22;10677;50.942;4.028;2022-09-09T17:21:10;21.10;99.90
21037;DHT22;10677;50.942;4.028;2022-09-09T17:23:37;20.90;99.90
21037;DHT22;10677;50.942;4.028;2022-09-09T17:26:05;20.60;99.90
21037;DHT22;10677;50.942;4.028;2022-09-09T17:28:36;20.40;99.90
21037;DHT22;10677;50.942;4.028;2022-09-09T17:31:06;20.30;99.90
21037;DHT22;10677;50.942;4.028;2022-09-09T17:33:40;20.10;99.90
21037;DHT22;10677;50.942;4.028;2022-09-09T17:36:10;20.00;99.90
21037;DHT22;10677;50.942;4.028;2022-09-09T17:38:37;19.90;99.90
21037;DHT22;10677;50.942;4.028;2022-09-09T17:41:24;19.70;99.90
21037;DHT22;10677;50.942;4.028;2022-09-09T17:43:50;19.60;99.90
21037;DHT22;10677;50.942;4.028;2022-09-09T17:46:29;19.50;99.90
21037;DHT22;10677;50.942;4.028;2022-09-09T17:48:58;19.30;99.90
21037;DHT22;10677;50.942;4.028;2022-09-09T17:51:25;19.20;99.90
21037;DHT22;10677;50.942;4.028;2022-09-09T17:53:54;19.00;99.90
21037;DHT22;10677;50.942;4.028;2022-09-09T17:56:22;19.00;99.90
21037;DHT22;10677;50.942;4.028;2022-09-09T17:58:49;18.90;99.90
21037;DHT22;10677;50.942;4.028;2022-09-09T18:01:21;18.80;99.90
21037;DHT22;10677;50.942;4.028;2022-09-09T18:03:48;18.70;99.90
21037;DHT22;10677;50.942;4.028;2022-09-09T18:06:17;18.60;99.90
21037;DHT22;10677;50.942;4.028;2022-09-09T18:08:49;18.70;99.90